Time;durP1;ratioP1;P1;durP2;ratioP2;P2;SDS_P1;SDS_P2;PMS_P1;PMS_P2;Temp;Humidity;BMP_temperature;BMP_pressure;BME280_temperature;BME280_humidity;BME280_pressure;Samples;Min_cycle;Max_cycle;Signal;HPM_P1;HPM_P2
2023/09/25 00:02:16;;;;;;;6.85;4.75;;;28.60;54.50;;;;;;5011094;28;20088;-69
2023/09/25 00:04:42;;;;;;;7.75;4.40;;;28.50;54.50;;;;;;5010972;28;20166;-69
2023/09/25 00:07:09;;;;;;;7.05;5.28;;;28.60;54.60;;;;;;5011023;28;20125;-69
2023/09/25 00:09:34;;;;;;;10.07;5.50;;;28.60;54.70;;;;;;5009389;28;20104;-70
2023/09/25 00:12:00;;;;;;;8.38;5.25;;;28.40;54.70;;;;;;5009013;28;20030;-70
2023/09/25 00:14:26;;;;;;;10.65;5.32;;;28.50;54.70;;;;;;5011048;28;20426;-69
2023/09/25 00:16:52;;;;;;;7.05;4.80;;;28.60;54.80;;;;;;5010912;28;20061;-69
2023/09/25 00:19:18;;;;;;;9.90;4.95;;;28.60;54.80;;;;;;5010527;28;20530;-69
2023/09/25 00:21:44;;;;;;;8.68;5.15;;;28.50;54.80;;;;;;5010596;28;20402;-69
2023/09/25 00:24:10;;;;;;;6.35;4.50;;;28.50;54.80;;;;;;5009918;28;20046;-69
2023/09/25 00:26:36;;;;;;;7.10;5.28;;;28.60;54.80;;;;;;5011896;28;20030;-70
2023/09/25 00:29:03;;;;;;;10.10;4.85;;;28.60;54.90;;;;;;5014352;28;20044;-69
2023/09/25 00:31:29;;;;;;;7.20;4.80;;;28.50;55.00;;;;;;5014420;28;20034;-70
2023/09/25 00:33:56;;;;;;;5.85;4.28;;;28.60;55.00;;;;;;5013050;28;20049;-69
2023/09/25 00:36:22;;;;;;;7.43;5.00;;;28.60;55.00;;;;;;5014088;28;20474;-69
2023/09/25 00:38:48;;;;;;;6.57;5.05;;;28.50;54.90;;;;;;5013566;28;20085;-69
2023/09/25 00:41:14;;;;;;;7.57;4.65;;;28.40;54.90;;;;;;5013450;28;20172;-69
2023/09/25 00:43:41;;;;;;;7.60;5.10;;;28.40;54.90;;;;;;5013047;28;20046;-70
2023/09/25 00:46:07;;;;;;;7.50;4.32;;;28.40;54.90;;;;;;5014331;28;20049;-69
2023/09/25 00:48:33;;;;;;;5.63;4.63;;;28.60;54.90;;;;;;5013825;28;20072;-68
2023/09/25 00:51:01;;;;;;;5.95;4.97;;;28.60;55.00;;;;;;5014619;28;20034;-70
2023/09/25 00:53:29;;;;;;;9.60;5.28;;;28.40;55.00;;;;;;5012456;28;20112;-70
2023/09/25 00:55:56;;;;;;;6.63;4.65;;;28.50;55.00;;;;;;5012141;28;20173;-69
2023/09/25 00:58:23;;;;;;;5.75;4.45;;;28.40;55.00;;;;;;5011052;28;20088;-69
2023/09/25 01:00:49;;;;;;;6.47;4.63;;;28.40;55.10;;;;;;5011830;28;20026;-69
2023/09/25 01:03:15;;;;;;;6.78;5.10;;;28.40;55.20;;;;;;5011755;28;20029;-69
2023/09/25 01:05:41;;;;;;;7.93;5.15;;;28.40;55.20;;;;;;5011053;28;20125;-70
2023/09/25 01:08:08;;;;;;;6.80;4.15;;;28.40;55.30;;;;;;5010832;28;20056;-69
2023/09/25 01:10:34;;;;;;;6.72;5.28;;;28.50;55.30;;;;;;5013607;28;20731;-69
2023/09/25 01:13:01;;;;;;;6.97;4.35;;;28.40;55.40;;;;;;5011138;28;20034;-69
2023/09/25 01:15:27;;;;;;;7.75;4.85;;;28.50;55.40;;;;;;5012714;28;20030;-69
2023/09/25 01:17:56;;;;;;;7.80;5.07;;;28.40;55.40;;;;;;5012758;28;20029;-69
2023/09/25 01:20:22;;;;;;;7.85;5.30;;;28.40;55.40;;;;;;5013393;28;20108;-69
2023/09/25 01:22:50;;;;;;;8.30;5.45;;;28.50;55.40;;;;;;5013519;28;20133;-69
2023/09/25 01:25:18;;;;;;;7.97;5.28;;;28.60;55.50;;;;;;5013785;28;20041;-69
2023/09/25 01:27:46;;;;;;;9.48;5.25;;;28.40;55.50;;;;;;5009604;28;20093;-69
2023/09/25 01:30:13;;;;;;;7.32;5.22;;;28.40;55.60;;;;;;4995708;28;20026;-69
2023/09/25 01:32:42;;;;;;;6.93;4.75;;;28.50;55.60;;;;;;5013393;28;20033;-69
2023/09/25 01:35:22;;;;;;;6.03;4.85;;;28.50;55.60;;;;;;5013517;28;20088;-69
2023/09/25 01:37:49;;;;;;;8.65;4.85;;;28.40;55.50;;;;;;5012358;28;20034;-70
2023/09/25 01:40:17;;;;;;;7.05;4.88;;;28.40;55.50;;;;;;5011867;28;20112;-70
2023/09/25 01:42:47;;;;;;;8.15;5.53;;;28.50;55.50;;;;;;5011853;28;20052;-70
2023/09/25 01:45:19;;;;;;;7.60;4.80;;;28.40;55.60;;;;;;5013140;28;20495;-70
2023/09/25 01:47:50;;;;;;;8.57;5.05;;;28.40;55.60;;;;;;5012063;28;20038;-70
2023/09/25 01:50:25;;;;;;;6.78;4.90;;;28.40;55.60;;;;;;5012624;28;20042;-69
2023/09/25 01:53:01;;;;;;;6.85;5.07;;;28.50;55.60;;;;;;5011433;28;20441;-69
2023/09/25 01:55:29;;;;;;;7.45;4.93;;;28.50;55.70;;;;;;5011952;28;20044;-69
2023/09/25 01:57:55;;;;;;;11.18;4.82;;;28.50;55.70;;;;;;5008949;28;20682;-69
2023/09/25 02:00:21;;;;;;;6.88;4.47;;;28.30;55.70;;;;;;5011458;28;20474;-69
2023/09/25 02:02:47;;;;;;;6.32;4.85;;;28.30;55.80;;;;;;5011074;28;20140;-69
2023/09/25 02:05:13;;;;;;;5.97;5.05;;;28.30;55.80;;;;;;5012249;28;20037;-69
2023/09/25 02:07:40;;;;;;;9.52;5.43;;;28.40;55.80;;;;;;5008494;28;20060;-69
2023/09/25 02:10:07;;;;;;;7.10;4.40;;;28.30;55.80;;;;;;5012212;28;20497;-69
2023/09/25 02:12:34;;;;;;;7.38;4.60;;;28.30;55.80;;;;;;5007534;28;20108;-69
2023/09/25 02:15:03;;;;;;;8.05;5.10;;;28.10;55.90;;;;;;4994041;28;20088;-70
2023/09/25 02:17:32;;;;;;;8.40;5.35;;;28.20;55.90;;;;;;5009207;28;20049;-69
2023/09/25 02:20:12;;;;;;;7.72;5.28;;;28.20;55.90;;;;;;5009342;28;20034;-69
2023/09/25 02:22:39;;;;;;;7.47;5.03;;;28.30;55.90;;;;;;4991850;28;20061;-69
2023/09/25 02:25:06;;;;;;;8.98;5.00;;;28.20;56.00;;;;;;4993389;28;20069;-69
2023/09/25 02:27:32;;;;;;;7.22;4.97;;;28.20;56.00;;;;;;4979147;28;20053;-69
2023/09/25 02:29:58;;;;;;;6.32;4.78;;;28.30;56.10;;;;;;5009614;28;20514;-69
2023/09/25 02:32:24;;;;;;;8.48;5.10;;;28.10;56.20;;;;;;5009820;28;20049;-70
2023/09/25 02:34:51;;;;;;;6.45;5.07;;;28.30;56.30;;;;;;4993466;28;20129;-69
2023/09/25 02:37:17;;;;;;;8.70;5.03;;;28.10;56.40;;;;;;5008691;28;20121;-70
2023/09/25 02:39:43;;;;;;;5.93;4.40;;;28.20;56.40;;;;;;5009943;28;20034;-69
2023/09/25 02:42:10;;;;;;;6.03;4.35;;;28.20;56.50;;;;;;4992271;28;20052;-70
2023/09/25 02:44:36;;;;;;;7.63;4.63;;;28.10;56.50;;;;;;5011684;28;20492;-69
2023/09/25 02:47:02;;;;;;;7.10;4.90;;;28.10;56.50;;;;;;5010883;28;20049;-70
2023/09/25 02:49:28;;;;;;;6.28;4.93;;;28.20;56.60;;;;;;5011404;28;20034;-70
2023/09/25 02:51:54;;;;;;;6.15;4.75;;;28.20;56.70;;;;;;5011623;28;20064;-69
2023/09/25 02:54:19;;;;;;;5.40;4.25;;;28.30;56.70;;;;;;5024082;28;20021;-70
2023/09/25 02:56:46;;;;;;;5.97;4.68;;;28.40;56.70;;;;;;5028815;28;20040;-69
2023/09/25 02:59:12;;;;;;;9.65;4.63;;;28.30;56.70;;;;;;5008368;28;20056;-69
2023/09/25 03:01:38;;;;;;;9.77;4.90;;;28.40;56.70;;;;;;5029065;28;20131;-70
2023/09/25 03:04:05;;;;;;;7.38;4.78;;;28.30;56.70;;;;;;5012501;28;20129;-70
2023/09/25 03:06:31;;;;;;;6.70;4.70;;;28.30;56.70;;;;;;5012761;28;20053;-69
2023/09/25 03:08:57;;;;;;;9.43;4.78;;;28.30;56.70;;;;;;5026284;28;20040;-69
2023/09/25 03:11:23;;;;;;;6.78;4.38;;;28.40;56.70;;;;;;5012706;28;20116;-70
2023/09/25 03:13:50;;;;;;;8.20;4.28;;;28.50;56.70;;;;;;5000336;28;20085;-69
2023/09/25 03:16:17;;;;;;;6.90;4.57;;;28.40;56.70;;;;;;5028741;28;20042;-69
2023/09/25 03:18:43;;;;;;;4.90;4.03;;;28.40;56.70;;;;;;5028776;28;20037;-69
2023/09/25 03:21:13;;;;;;;6.40;4.38;;;28.50;56.70;;;;;;5046499;28;20106;-69
2023/09/25 03:23:40;;;;;;;8.60;4.45;;;28.50;56.70;;;;;;5041801;28;20076;-69
2023/09/25 03:26:16;;;;;;;5.10;3.85;;;28.40;56.70;;;;;;5012374;28;20532;-69
2023/09/25 03:28:44;;;;;;;6.78;4.50;;;28.40;56.70;;;;;;5010825;28;20120;-70
2023/09/25 03:31:11;;;;;;;7.80;4.57;;;28.40;56.70;;;;;;5028472;28;20045;-69
2023/09/25 03:33:37;;;;;;;5.38;4.13;;;28.50;56.70;;;;;;5028934;28;20452;-69
2023/09/25 03:36:04;;;;;;;6.55;4.85;;;28.40;56.70;;;;;;5012075;28;20037;-69
2023/09/25 03:38:31;;;;;;;4.40;3.50;;;28.40;56.70;;;;;;5021824;28;20057;-69
2023/09/25 03:40:57;;;;;;;6.10;4.30;;;28.50;56.70;;;;;;5009826;28;20030;-69
2023/09/25 03:43:23;;;;;;;3.95;3.20;;;28.50;56.70;;;;;;5006268;28;20046;-69
2023/09/25 03:45:49;;;;;;;5.75;4.05;;;28.40;56.70;;;;;;5010169;28;20033;-69
2023/09/25 03:48:15;;;;;;;8.70;4.35;;;28.40;56.70;;;;;;5011536;28;20478;-69
2023/09/25 03:50:41;;;;;;;5.72;3.92;;;28.60;56.60;;;;;;5011140;28;20125;-70
2023/09/25 03:53:07;;;;;;;6.72;3.97;;;28.40;56.60;;;;;;4992454;28;20144;-70
2023/09/25 03:55:33;;;;;;;6.72;4.50;;;28.50;56.60;;;;;;4990930;28;20061;-69
2023/09/25 03:57:59;;;;;;;10.57;4.05;;;28.60;56.60;;;;;;4971456;28;20039;-69
2023/09/25 04:00:26;;;;;;;11.00;3.90;;;28.50;56.60;;;;;;4968199;28;20047;-69
2023/09/25 04:02:53;;;;;;;5.15;4.05;;;28.60;56.60;;;;;;4973611;28;20094;-69
2023/09/25 04:05:19;;;;;;;6.72;4.53;;;28.50;56.60;;;;;;4973858;28;20126;-69
2023/09/25 04:07:45;;;;;;;7.10;4.00;;;28.40;56.70;;;;;;4973245;28;20461;-69
2023/09/25 04:10:11;;;;;;;5.28;3.92;;;28.50;56.70;;;;;;4955531;28;20058;-69
2023/09/25 04:12:38;;;;;;;4.03;3.30;;;28.50;56.70;;;;;;4971826;28;20833;-69
2023/09/25 04:15:10;;;;;;;5.30;3.05;;;28.60;56.60;;;;;;4966805;28;20066;-69
2023/09/25 04:17:38;;;;;;;10.30;4.10;;;28.60;56.70;;;;;;4963938;28;20047;-70
2023/09/25 04:20:08;;;;;;;5.18;4.50;;;28.60;56.70;;;;;;4959062;28;20058;-70
2023/09/25 04:22:37;;;;;;;7.32;4.35;;;28.60;56.60;;;;;;4992708;28;20062;-69
2023/09/25 04:25:08;;;;;;;5.38;3.92;;;28.50;56.60;;;;;;4998186;28;20213;-70
2023/09/25 04:27:35;;;;;;;4.57;4.10;;;28.50;56.60;;;;;;5009244;28;20079;-69
2023/09/25 04:30:08;;;;;;;4.43;3.97;;;28.40;56.60;;;;;;5003442;28;20048;-69
2023/09/25 04:32:34;;;;;;;;;;;28.40;56.60;;;;;;5015095;28;20026;-69
2023/09/25 04:35:01;;;;;;;5.28;3.95;;;28.50;56.60;;;;;;5012986;28;19920;-70
2023/09/25 04:37:26;;;;;;;9.10;4.43;;;28.50;56.60;;;;;;5014416;28;20394;-69
2023/09/25 04:39:52;;;;;;;9.70;4.60;;;28.60;56.50;;;;;;5010981;28;20041;-69
2023/09/25 04:42:19;;;;;;;7.50;4.65;;;28.40;56.50;;;;;;5014277;28;20041;-70
2023/09/25 04:44:45;;;;;;;0.90;0.90;;;28.60;56.40;;;;;;5011898;28;20490;-69
2023/09/25 04:47:11;;;;;;;0.82;0.82;;;28.40;57.40;;;;;;5013241;28;20062;-68
2023/09/25 04:49:37;;;;;;;0.80;0.77;;;28.40;57.90;;;;;;5014425;28;20100;-71
2023/09/25 04:52:03;;;;;;;6.22;3.63;;;28.50;58.10;;;;;;5013626;28;20478;-73
2023/09/25 04:54:31;;;;;;;4.93;2.92;;;28.70;56.50;;;;;;5013388;28;20505;-74
2023/09/25 04:56:57;;;;;;;3.67;3.30;;;28.60;56.20;;;;;;5013398;28;20113;-73
2023/09/25 04:59:23;;;;;;;6.97;4.10;;;28.60;58.40;;;;;;5011830;28;20114;-74
2023/09/25 05:01:49;;;;;;;6.85;4.40;;;28.70;57.80;;;;;;5012547;28;20053;-72
2023/09/25 05:04:16;;;;;;;5.72;4.82;;;28.70;57.00;;;;;;5011172;28;20034;-73
2023/09/25 05:06:42;;;;;;;5.05;4.40;;;28.70;56.90;;;;;;5012529;28;20060;-73
2023/09/25 05:09:11;;;;;;;4.65;3.58;;;28.60;56.00;;;;;;5014187;28;20470;-73
2023/09/25 05:11:37;;;;;;;6.93;4.10;;;28.90;55.70;;;;;;5011232;28;20029;-72
2023/09/25 05:14:05;;;;;;;8.15;4.20;;;28.70;55.30;;;;;;5014015;28;20471;-71
2023/09/25 05:16:31;;;;;;;6.28;4.15;;;28.70;55.40;;;;;;5012111;28;20371;-72
2023/09/25 05:18:58;;;;;;;7.28;5.15;;;28.70;55.00;;;;;;5012538;28;20045;-73
2023/09/25 05:21:24;;;;;;;6.78;5.30;;;28.60;54.60;;;;;;5013951;28;20081;-72
2023/09/25 05:23:50;;;;;;;7.18;4.15;;;28.70;54.50;;;;;;5011571;28;20046;-74
2023/09/25 05:26:16;;;;;;;7.45;4.28;;;28.80;54.60;;;;;;5009971;28;20034;-73
2023/09/25 05:28:42;;;;;;;5.78;3.40;;;28.70;54.60;;;;;;5013507;28;20048;-73
2023/09/25 05:31:08;;;;;;;4.72;3.85;;;28.80;54.70;;;;;;5012729;28;20030;-73
2023/09/25 05:33:34;;;;;;;5.35;3.90;;;28.70;54.90;;;;;;5012285;28;20033;-73
2023/09/25 05:36:00;;;;;;;6.60;3.70;;;28.70;55.10;;;;;;5013125;28;20052;-73
2023/09/25 05:38:26;;;;;;;4.80;3.67;;;28.80;55.10;;;;;;5013743;28;20113;-74
2023/09/25 05:40:52;;;;;;;9.68;5.05;;;28.70;55.30;;;;;;5011981;28;20398;-70
2023/09/25 05:43:19;;;;;;;4.20;3.67;;;28.70;55.40;;;;;;5013200;28;20072;-69
2023/09/25 05:45:45;;;;;;;9.73;5.40;;;28.80;55.30;;;;;;5006003;28;20034;-70
2023/09/25 05:48:11;;;;;;;11.82;5.57;;;28.80;55.10;;;;;;4993955;28;20073;-70
2023/09/25 05:50:37;;;;;;;11.45;5.70;;;29.00;57.80;;;;;;4993841;28;20026;-70
2023/09/25 05:53:03;;;;;;;9.35;5.45;;;29.20;60.60;;;;;;5012574;28;20038;-71
2023/09/25 05:55:29;;;;;;;9.48;5.88;;;29.40;58.40;;;;;;5013028;28;20060;-70
2023/09/25 05:57:55;;;;;;;6.03;4.97;;;29.20;56.20;;;;;;5013188;28;20317;-70
2023/09/25 06:00:22;;;;;;;6.47;4.72;;;29.20;55.40;;;;;;5011601;28;20108;-70
2023/09/25 06:02:48;;;;;;;6.60;5.10;;;29.00;55.30;;;;;;5012790;28;20026;-72
2023/09/25 06:05:15;;;;;;;7.80;4.65;;;29.00;54.90;;;;;;5008273;28;20033;-69
2023/09/25 06:07:42;;;;;;;5.57;4.50;;;29.00;55.20;;;;;;5009479;28;20042;-71
2023/09/25 06:10:08;;;;;;;5.15;3.78;;;29.00;55.40;;;;;;5012917;28;20486;-70
2023/09/25 06:12:35;;;;;;;5.35;3.63;;;28.90;54.90;;;;;;5013083;28;20029;-69
2023/09/25 06:15:05;;;;;;;10.18;5.75;;;29.00;55.50;;;;;;5026964;28;20453;-70
2023/09/25 06:17:31;;;;;;;7.00;5.18;;;29.00;55.60;;;;;;5011002;28;20536;-72
2023/09/25 06:19:57;;;;;;;6.53;4.45;;;28.80;55.30;;;;;;5011485;28;20068;-71
2023/09/25 06:22:23;;;;;;;5.50;3.80;;;28.80;55.00;;;;;;5003601;28;20077;-70
2023/09/25 06:24:50;;;;;;;5.30;3.92;;;29.00;55.70;;;;;;5012349;28;20041;-70
2023/09/25 06:27:16;;;;;;;8.60;5.20;;;28.80;55.10;;;;;;5012747;28;20102;-70
2023/09/25 06:29:43;;;;;;;6.32;4.18;;;28.90;55.00;;;;;;5012514;28;20413;-70
2023/09/25 06:32:10;;;;;;;7.97;5.13;;;28.80;54.90;;;;;;5010730;28;20069;-70
2023/09/25 06:34:36;;;;;;;7.32;4.93;;;29.00;55.40;;;;;;5012172;28;20042;-70
2023/09/25 06:37:02;;;;;;;5.45;4.10;;;28.80;54.80;;;;;;5011823;28;20052;-68
2023/09/25 06:39:28;;;;;;;6.10;4.28;;;28.90;54.80;;;;;;5010118;28;20049;-71
2023/09/25 06:41:54;;;;;;;10.40;5.53;;;28.90;54.90;;;;;;5012139;28;20036;-72
2023/09/25 06:44:20;;;;;;;9.90;5.55;;;28.80;54.90;;;;;;5012137;28;20124;-71
2023/09/25 06:46:46;;;;;;;7.38;3.90;;;28.90;54.90;;;;;;5008696;28;20081;-71
2023/09/25 06:49:12;;;;;;;6.53;4.47;;;28.80;54.90;;;;;;5010877;28;20151;-71
2023/09/25 06:51:38;;;;;;;6.63;4.20;;;28.80;54.90;;;;;;5012099;28;20446;-71
2023/09/25 06:54:04;;;;;;;6.78;3.97;;;28.80;55.00;;;;;;5012018;28;20034;-71
2023/09/25 06:56:30;;;;;;;8.43;5.28;;;28.80;55.00;;;;;;5012047;28;20038;-71
2023/09/25 06:58:56;;;;;;;6.88;5.03;;;28.80;55.00;;;;;;5011967;28;20386;-71
2023/09/25 07:01:23;;;;;;;7.03;5.50;;;28.80;54.90;;;;;;5009283;28;20038;-71
2023/09/25 07:03:49;;;;;;;5.32;3.58;;;28.60;54.80;;;;;;4992671;28;20038;-71
2023/09/25 07:06:15;;;;;;;6.13;4.82;;;28.60;55.00;;;;;;4992668;28;20034;-70
2023/09/25 07:08:41;;;;;;;7.38;4.82;;;28.70;56.20;;;;;;4991117;28;20022;-71
2023/09/25 07:11:08;;;;;;;5.13;3.83;;;28.60;56.10;;;;;;4992395;28;20565;-71
2023/09/25 07:13:34;;;;;;;9.05;5.43;;;28.70;56.00;;;;;;5006271;28;20032;-71
2023/09/25 07:16:04;;;;;;;4.30;3.63;;;28.70;56.00;;;;;;5010723;28;20160;-70
2023/09/25 07:18:30;;;;;;;6.32;4.50;;;28.60;56.00;;;;;;5008851;28;20113;-70
2023/09/25 07:20:56;;;;;;;7.88;6.07;;;28.60;56.00;;;;;;5010844;28;20539;-71
2023/09/25 07:23:23;;;;;;;7.10;6.10;;;28.60;55.90;;;;;;5011343;28;20092;-71
2023/09/25 07:25:49;;;;;;;6.88;5.70;;;28.60;55.90;;;;;;5011936;28;20038;-70
2023/09/25 07:28:15;;;;;;;7.13;5.18;;;28.60;55.40;;;;;;5010548;28;20088;-71
2023/09/25 07:30:44;;;;;;;10.95;5.53;;;28.70;55.70;;;;;;5010526;28;20498;-70
2023/09/25 07:33:12;;;;;;;6.82;4.38;;;28.70;55.80;;;;;;5010966;28;20120;-70
2023/09/25 07:35:38;;;;;;;11.02;6.15;;;28.70;55.80;;;;;;5009599;28;20053;-70
2023/09/25 07:38:04;;;;;;;7.10;4.55;;;28.60;55.80;;;;;;5011813;28;20048;-71
2023/09/25 07:40:30;;;;;;;9.52;5.38;;;28.50;55.80;;;;;;5011341;28;20030;-71
2023/09/25 07:42:57;;;;;;;5.40;3.80;;;28.70;55.60;;;;;;5009926;28;20065;-70
2023/09/25 07:45:25;;;;;;;4.78;3.15;;;28.70;55.50;;;;;;5011032;28;20058;-70
2023/09/25 07:47:54;;;;;;;7.00;4.93;;;28.60;55.70;;;;;;5008592;28;20490;-70
2023/09/25 07:50:24;;;;;;;8.13;3.92;;;28.60;55.60;;;;;;5011576;28;20059;-71
2023/09/25 07:52:54;;;;;;;7.22;5.18;;;28.50;55.80;;;;;;5011536;28;20096;-71
2023/09/25 07:55:21;;;;;;;10.27;6.03;;;28.60;55.90;;;;;;5011231;28;20034;-71
2023/09/25 07:57:47;;;;;;;4.43;4.03;;;28.60;55.90;;;;;;5010186;28;20122;-71
2023/09/25 08:00:36;;;;;;;5.60;4.32;;;28.50;55.80;;;;;;5010114;28;20038;-71
2023/09/25 08:03:04;;;;;;;7.15;5.05;;;28.80;55.80;;;;;;5010184;28;20478;-71
2023/09/25 08:05:30;;;;;;;14.85;6.22;;;28.60;55.80;;;;;;5009835;28;20123;-71
2023/09/25 08:07:56;;;;;;;6.57;5.60;;;28.60;55.70;;;;;;4992771;28;20045;-71
2023/09/25 08:10:22;;;;;;;8.27;5.93;;;28.60;55.70;;;;;;4991150;28;20429;-71
2023/09/25 08:12:49;;;;;;;8.60;4.70;;;28.60;55.60;;;;;;4990348;28;20045;-71
2023/09/25 08:15:15;;;;;;;7.70;4.60;;;28.60;55.60;;;;;;5009883;28;20155;-71
2023/09/25 08:17:46;;;;;;;5.28;3.83;;;28.60;55.60;;;;;;5008876;28;20034;-71
2023/09/25 08:20:22;;;;;;;5.68;3.92;;;28.50;55.60;;;;;;5011302;28;20065;-71
2023/09/25 08:22:50;;;;;;;6.20;3.33;;;28.70;55.60;;;;;;5007811;28;20450;-71
2023/09/25 08:25:17;;;;;;;7.43;4.20;;;28.70;55.60;;;;;;5009471;28;20042;-71
2023/09/25 08:27:43;;;;;;;7.13;4.78;;;28.50;55.60;;;;;;4993576;28;20482;-76
2023/09/25 08:30:10;;;;;;;6.82;4.40;;;28.50;55.50;;;;;;5010182;28;20132;-71
2023/09/25 08:32:37;;;;;;;7.43;4.65;;;28.70;55.60;;;;;;5010144;28;20152;-71
2023/09/25 08:35:03;;;;;;;9.75;5.65;;;28.50;55.60;;;;;;5010380;28;20037;-71
2023/09/25 08:37:30;;;;;;;10.95;4.95;;;28.50;55.10;;;;;;5011170;28;20087;-71
2023/09/25 08:39:56;;;;;;;6.53;4.20;;;28.50;55.50;;;;;;5008636;28;20072;-71
2023/09/25 08:42:26;;;;;;;8.68;5.53;;;28.50;55.50;;;;;;5010618;28;20454;-71
2023/09/25 08:44:54;;;;;;;7.05;4.55;;;28.50;55.30;;;;;;5009788;28;20374;-71
2023/09/25 08:47:21;;;;;;;6.97;5.40;;;28.50;55.00;;;;;;5014094;28;20540;-71
2023/09/25 08:49:52;;;;;;;8.32;4.47;;;28.60;55.40;;;;;;5012470;28;20034;-71
2023/09/25 08:52:22;;;;;;;6.40;4.65;;;28.60;55.50;;;;;;5014266;28;20046;-71
2023/09/25 08:54:49;;;;;;;8.07;5.43;;;28.40;55.60;;;;;;5029138;28;20557;-71
2023/09/25 08:57:18;;;;;;;9.35;5.90;;;28.60;55.60;;;;;;5031474;28;20437;-71
2023/09/25 08:59:47;;;;;;;6.90;5.32;;;28.50;55.60;;;;;;5031306;28;20157;-71
2023/09/25 09:02:14;;;;;;;6.97;4.88;;;28.40;55.60;;;;;;5031367;28;20670;-71
2023/09/25 09:04:40;;;;;;;5.43;4.63;;;28.40;55.60;;;;;;5028647;28;20148;-71
2023/09/25 09:07:08;;;;;;;6.05;4.70;;;28.50;55.60;;;;;;5031314;28;20466;-71
2023/09/25 09:09:35;;;;;;;5.85;4.35;;;28.50;55.60;;;;;;5030972;28;20580;-71
2023/09/25 09:12:02;;;;;;;5.20;3.83;;;28.40;55.70;;;;;;5030224;28;20041;-71
2023/09/25 09:14:36;;;;;;;4.90;4.00;;;28.40;55.70;;;;;;5030780;28;20076;-71
2023/09/25 09:17:04;;;;;;;5.72;3.92;;;28.40;55.80;;;;;;5031019;28;20040;-72
2023/09/25 09:19:48;;;;;;;6.88;5.32;;;28.50;55.80;;;;;;5029080;28;20049;-70
2023/09/25 09:22:16;;;;;;;9.73;4.40;;;28.50;55.80;;;;;;5028058;28;20491;-71
2023/09/25 09:24:43;;;;;;;4.50;4.10;;;28.40;55.80;;;;;;5028997;28;20462;-71
2023/09/25 09:27:11;;;;;;;6.75;4.80;;;28.40;55.90;;;;;;5013284;28;20077;-71
2023/09/25 09:29:43;;;;;;;5.47;3.95;;;28.50;55.90;;;;;;5013424;28;20126;-71
2023/09/25 09:32:09;;;;;;;4.05;3.65;;;28.40;55.90;;;;;;5011154;28;20044;-71
2023/09/25 09:34:37;;;;;;;7.38;5.63;;;28.50;55.90;;;;;;5012529;28;20042;-71
2023/09/25 09:37:07;;;;;;;9.93;5.50;;;28.30;55.90;;;;;;5013436;28;20065;-71
2023/09/25 09:39:35;;;;;;;13.82;6.15;;;28.30;55.80;;;;;;5013120;28;20026;-71
2023/09/25 09:42:05;;;;;;;6.80;4.63;;;28.30;56.00;;;;;;5011340;28;20451;-72
2023/09/25 09:44:32;;;;;;;5.30;3.53;;;28.20;56.00;;;;;;5013220;28;20064;-72
2023/09/25 09:47:07;;;;;;;9.63;5.15;;;28.40;56.00;;;;;;5012186;28;20046;-71
2023/09/25 09:49:41;;;;;;;5.75;3.67;;;28.30;56.10;;;;;;5012473;28;20044;-71
2023/09/25 09:52:08;;;;;;;4.05;3.45;;;28.30;56.10;;;;;;5013312;28;20065;-71
2023/09/25 09:54:40;;;;;;;5.10;3.92;;;28.40;56.10;;;;;;5010196;28;20048;-71
2023/09/25 09:57:10;;;;;;;4.65;3.78;;;28.40;56.10;;;;;;5011119;28;20442;-72
2023/09/25 09:59:36;;;;;;;7.13;4.80;;;28.50;56.20;;;;;;5012860;28;20034;-72
2023/09/25 10:02:04;;;;;;;5.45;4.15;;;28.40;56.10;;;;;;5027236;28;20049;-72
2023/09/25 10:04:30;;;;;;;5.38;4.18;;;28.50;56.10;;;;;;4990746;28;20030;-72
2023/09/25 10:07:05;;;;;;;5.32;3.85;;;28.50;56.20;;;;;;4992060;28;20471;-71
2023/09/25 10:09:31;;;;;;;9.77;4.50;;;28.40;56.10;;;;;;4992375;28;20046;-72
2023/09/25 10:12:00;;;;;;;11.27;4.32;;;28.40;56.10;;;;;;4993168;28;20505;-71
2023/09/25 10:14:30;;;;;;;8.00;4.93;;;28.30;56.00;;;;;;5015452;28;20036;-71
2023/09/25 10:17:06;;;;;;;8.43;4.70;;;28.40;56.00;;;;;;5011300;28;20042;-71
2023/09/25 10:19:41;;;;;;;10.18;4.82;;;28.20;56.00;;;;;;5007855;28;20039;-72
2023/09/25 10:22:29;;;;;;;7.43;4.00;;;28.40;56.40;;;;;;5011132;28;20098;-70
2023/09/25 10:25:05;;;;;;;8.10;4.18;;;28.30;56.40;;;;;;4984398;28;20030;-72
2023/09/25 10:27:32;;;;;;;7.68;4.75;;;28.40;57.00;;;;;;5007900;28;20048;-73
2023/09/25 10:30:11;;;;;;;6.20;5.60;;;28.40;58.00;;;;;;5001272;28;20034;-74
2023/09/25 10:32:42;;;;;;;9.55;5.00;;;28.40;58.20;;;;;;5004567;28;20038;-74
2023/09/25 10:35:37;;;;;;;8.27;5.30;;;28.50;58.40;;;;;;5006880;28;20450;-73
2023/09/25 10:38:21;;;;;;;6.88;5.32;;;28.50;58.20;;;;;;5009359;28;20040;-73
2023/09/25 10:40:52;;;;;;;6.07;4.95;;;28.60;56.60;;;;;;5010458;28;20492;-74
2023/09/25 10:43:20;;;;;;;6.75;4.85;;;28.60;55.30;;;;;;5012170;28;20034;-73
2023/09/25 10:45:47;;;;;;;8.52;4.72;;;28.60;56.30;;;;;;5009315;28;20042;-72
2023/09/25 10:48:13;;;;;;;7.05;4.75;;;28.50;56.20;;;;;;5010478;28;20147;-71
2023/09/25 10:50:41;;;;;;;6.25;4.18;;;28.50;56.20;;;;;;5011641;28;20030;-73
2023/09/25 10:53:07;;;;;;;6.30;4.60;;;28.70;54.70;;;;;;5010875;28;20026;-73
2023/09/25 10:55:34;;;;;;;6.10;4.70;;;28.70;55.50;;;;;;5009992;28;20064;-72
2023/09/25 10:58:03;;;;;;;11.23;5.22;;;28.70;55.20;;;;;;5001112;28;20034;-73
2023/09/25 11:00:29;;;;;;;73.68;19.25;;;28.80;56.20;;;;;;5010984;28;20030;-73
2023/09/25 11:02:55;;;;;;;8.70;5.22;;;29.00;56.20;;;;;;5010682;28;20030;-74
2023/09/25 11:05:22;;;;;;;8.80;5.65;;;29.20;55.60;;;;;;5011372;28;20026;-73
2023/09/25 11:07:49;;;;;;;7.72;5.50;;;29.30;55.10;;;;;;4994361;28;20052;-73
2023/09/25 11:10:15;;;;;;;6.32;4.88;;;29.30;54.70;;;;;;5009081;28;20030;-73
2023/09/25 11:12:42;;;;;;;7.25;5.20;;;29.20;54.10;;;;;;5011017;28;20061;-74
2023/09/25 11:15:12;;;;;;;11.32;4.68;;;29.20;53.50;;;;;;5009123;28;20046;-73
2023/09/25 11:17:39;;;;;;;15.25;5.65;;;29.50;54.60;;;;;;5010586;28;20363;-74
2023/09/25 11:23:03;;;;;;;8.68;5.30;;;29.80;52.90;;;;;;4952231;28;20139;-72
2023/09/25 11:25:29;;;;;;;8.80;5.28;;;30.00;54.80;;;;;;4969104;28;20105;-71
2023/09/25 11:27:56;;;;;;;8.50;4.70;;;29.80;53.10;;;;;;4968429;28;20054;-71
2023/09/25 11:30:27;;;;;;;7.13;4.68;;;29.80;50.70;;;;;;4954568;28;20039;-73
2023/09/25 11:32:53;;;;;;;6.90;4.38;;;29.80;52.10;;;;;;4968815;28;20038;-73
2023/09/25 11:35:20;;;;;;;8.20;5.00;;;29.90;51.30;;;;;;4969167;28;20053;-73
2023/09/25 11:38:02;;;;;;;9.73;4.68;;;30.00;54.20;;;;;;4969717;28;20043;-72
2023/09/25 11:40:29;;;;;;;6.35;4.78;;;30.00;53.50;;;;;;4955053;28;20118;-74
2023/09/25 11:42:56;;;;;;;10.27;5.40;;;29.90;53.00;;;;;;4951522;28;20490;-72
2023/09/25 11:45:23;;;;;;;4.43;4.00;;;30.00;51.80;;;;;;4966130;28;20050;-71
2023/09/25 11:47:49;;;;;;;7.30;3.85;;;29.90;52.30;;;;;;4968071;28;20757;-71
2023/09/25 11:50:16;;;;;;;5.80;3.55;;;30.00;53.00;;;;;;4967598;28;20041;-73
2023/09/25 11:52:46;;;;;;;5.72;3.67;;;30.00;53.00;;;;;;4969028;28;20066;-72
2023/09/25 11:55:16;;;;;;;5.40;4.00;;;30.00;53.10;;;;;;4965828;28;20121;-72
2023/09/25 11:57:43;;;;;;;4.60;3.65;;;30.00;53.30;;;;;;4945006;28;20157;-71
2023/09/25 12:00:12;;;;;;;6.63;4.10;;;29.90;52.80;;;;;;4987596;28;20033;-72
2023/09/25 12:02:42;;;;;;;4.10;3.25;;;30.00;53.50;;;;;;4999449;28;20038;-72
2023/09/25 12:05:08;;;;;;;4.13;3.58;;;30.00;53.60;;;;;;5007962;28;20026;-71
2023/09/25 12:07:36;;;;;;;4.93;3.58;;;30.00;53.90;;;;;;4993787;28;20058;-72
2023/09/25 12:10:06;;;;;;;4.50;3.88;;;30.00;53.90;;;;;;4999202;28;20030;-72
2023/09/25 12:12:34;;;;;;;6.32;3.63;;;29.90;53.40;;;;;;5010026;28;20042;-71
2023/09/25 12:15:02;;;;;;;5.03;3.70;;;29.90;53.50;;;;;;5008802;28;20084;-72
2023/09/25 12:17:30;;;;;;;8.90;4.15;;;29.90;53.60;;;;;;5008872;28;20092;-73
2023/09/25 12:20:11;;;;;;;4.97;3.83;;;29.90;53.70;;;;;;5009155;28;20066;-73
2023/09/25 12:22:40;;;;;;;5.00;3.70;;;29.90;53.70;;;;;;5014248;28;20526;-72
2023/09/25 12:25:13;;;;;;;4.28;3.47;;;30.00;54.40;;;;;;5012604;28;20088;-72
2023/09/25 12:27:43;;;;;;;3.78;3.35;;;29.90;53.80;;;;;;5014190;28;20041;-72
2023/09/25 12:30:17;;;;;;;3.92;3.58;;;29.80;53.70;;;;;;5013944;28;20030;-72
2023/09/25 12:32:47;;;;;;;5.65;4.18;;;29.70;53.70;;;;;;5011324;28;20034;-73
2023/09/25 12:35:15;;;;;;;9.15;3.50;;;29.80;53.70;;;;;;5013876;28;20030;-72
2023/09/25 12:37:45;;;;;;;8.35;4.00;;;29.80;53.70;;;;;;5013900;28;20518;-73
2023/09/25 12:40:16;;;;;;;4.40;3.55;;;29.70;53.70;;;;;;5013287;28;20497;-71
2023/09/25 12:42:44;;;;;;;6.18;3.92;;;29.80;53.90;;;;;;5012618;28;20038;-73
2023/09/25 12:45:11;;;;;;;5.05;3.30;;;29.70;53.70;;;;;;5029514;28;20042;-76
2023/09/25 12:47:37;;;;;;;3.83;3.20;;;29.60;53.50;;;;;;5000349;28;20053;-72
2023/09/25 12:50:05;;;;;;;3.22;2.88;;;29.60;53.80;;;;;;5022086;28;20132;-72
2023/09/25 12:52:31;;;;;;;5.55;3.17;;;29.60;54.20;;;;;;5014872;28;20041;-73